sensor_id;sensor_type;location;lat;lon;timestamp;pressure;altitude;pressure_sealevel;temperature;humidity
50434;BME280;36361;38.954;-9.002;2023-01-29T00:00:41;101371.28;;;8.89;70.86
50434;BME280;36361;38.954;-9.002;2023-01-29T00:01:43;101374.56;;;8.99;70.84
50434;BME280;36361;38.954;-9.002;2023-01-29T00:02:43;101360.50;;;9.10;70.00
50434;BME280;36361;38.954;-9.002;2023-01-29T00:03:44;101373.28;;;9.31;68.84
50434;BME280;36361;38.954;-9.002;2023-01-29T00:04:45;101366.16;;;9.45;67.83
50434;BME280;36361;38.954;-9.002;2023-01-29T00:05:45;101366.59;;;9.49;67.65
50434;BME280;36361;38.954;-9.002;2023-01-29T00:06:46;101365.88;;;9.40;67.86
50434;BME280;36361;38.954;-9.002;2023-01-29T00:07:47;101361.81;;;9.15;70.48
50434;BME280;36361;38.954;-9.002;2023-01-29T00:08:48;101357.38;;;9.28;69.72
50434;BME280;36361;38.954;-9.002;2023-01-29T00:09:52;101351.31;;;9.26;68.83
50434;BME280;36361;38.954;-9.002;2023-01-29T00:10:59;101360.00;;;9.36;68.27
50434;BME280;36361;38.954;-9.002;2023-01-29T00:12:03;101350.69;;;9.46;67.72
50434;BME280;36361;38.954;-9.002;2023-01-29T00:13:05;101351.88;;;9.58;67.86
50434;BME280;36361;38.954;-9.002;2023-01-29T00:14:06;101354.94;;;9.69;65.09
50434;BME280;36361;38.954;-9.002;2023-01-29T00:15:07;101349.44;;;9.63;66.39
50434;BME280;36361;38.954;-9.002;2023-01-29T00:16:09;101348.50;;;9.56;66.95
50434;BME280;36361;38.954;-9.002;2023-01-29T00:17:10;101350.78;;;9.52;68.86
50434;BME280;36361;38.954;-9.002;2023-01-29T00:18:10;101346.44;;;9.58;71.53
50434;BME280;36361;38.954;-9.002;2023-01-29T00:19:11;101354.06;;;9.69;68.36
50434;BME280;36361;38.954;-9.002;2023-01-29T00:20:12;101345.16;;;9.75;72.42
50434;BME280;36361;38.954;-9.002;2023-01-29T00:21:18;101355.19;;;9.96;69.82
50434;BME280;36361;38.954;-9.002;2023-01-29T00:22:19;101357.72;;;9.97;63.44
50434;BME280;36361;38.954;-9.002;2023-01-29T00:23:20;101358.59;;;10.05;67.74
50434;BME280;36361;38.954;-9.002;2023-01-29T00:24:21;101359.84;;;10.02;64.35
50434;BME280;36361;38.954;-9.002;2023-01-29T00:25:21;101356.44;;;9.72;63.87
50434;BME280;36361;38.954;-9.002;2023-01-29T00:26:22;101358.03;;;9.66;64.14
50434;BME280;36361;38.954;-9.002;2023-01-29T00:27:24;101358.91;;;9.88;68.83
50434;BME280;36361;38.954;-9.002;2023-01-29T00:28:25;101358.38;;;10.00;67.08
50434;BME280;36361;38.954;-9.002;2023-01-29T00:29:28;101363.03;;;10.27;64.74
50434;BME280;36361;38.954;-9.002;2023-01-29T00:30:29;101364.31;;;10.31;64.35
50434;BME280;36361;38.954;-9.002;2023-01-29T00:31:29;101359.28;;;10.07;61.41
50434;BME280;36361;38.954;-9.002;2023-01-29T00:32:31;101364.19;;;10.18;63.78
50434;BME280;36361;38.954;-9.002;2023-01-29T00:33:32;101360.25;;;10.48;63.14
50434;BME280;36361;38.954;-9.002;2023-01-29T00:34:33;101358.59;;;10.47;66.42
50434;BME280;36361;38.954;-9.002;2023-01-29T00:35:34;101363.16;;;10.19;61.10
50434;BME280;36361;38.954;-9.002;2023-01-29T00:36:34;101361.72;;;10.23;65.20
50434;BME280;36361;38.954;-9.002;2023-01-29T00:37:35;101357.06;;;10.17;64.61
50434;BME280;36361;38.954;-9.002;2023-01-29T00:38:36;101354.63;;;10.50;66.06
50434;BME280;36361;38.954;-9.002;2023-01-29T00:39:37;101364.19;;;10.39;65.39
50434;BME280;36361;38.954;-9.002;2023-01-29T00:40:39;101351.53;;;10.53;66.33
50434;BME280;36361;38.954;-9.002;2023-01-29T00:41:58;101352.66;;;10.37;62.52
50434;BME280;36361;38.954;-9.002;2023-01-29T00:43:17;101357.34;;;10.50;66.05
50434;BME280;36361;38.954;-9.002;2023-01-29T00:44:39;101347.34;;;10.57;59.14
50434;BME280;36361;38.954;-9.002;2023-01-29T00:45:58;101354.19;;;10.46;60.29
50434;BME280;36361;38.954;-9.002;2023-01-29T00:46:59;101344.50;;;10.37;61.98
50434;BME280;36361;38.954;-9.002;2023-01-29T00:48:04;101341.69;;;9.81;62.18
50434;BME280;36361;38.954;-9.002;2023-01-29T00:49:06;101342.69;;;9.59;63.51
50434;BME280;36361;38.954;-9.002;2023-01-29T00:50:11;101337.00;;;9.75;65.28
50434;BME280;36361;38.954;-9.002;2023-01-29T00:51:12;101348.84;;;9.67;63.52
50434;BME280;36361;38.954;-9.002;2023-01-29T00:52:13;101341.28;;;9.63;62.82
50434;BME280;36361;38.954;-9.002;2023-01-29T00:53:26;101336.16;;;9.75;62.69
50434;BME280;36361;38.954;-9.002;2023-01-29T00:54:27;101339.09;;;9.73;61.79
50434;BME280;36361;38.954;-9.002;2023-01-29T00:55:28;101335.31;;;9.74;61.63
50434;BME280;36361;38.954;-9.002;2023-01-29T00:56:34;101334.34;;;9.82;62.71
50434;BME280;36361;38.954;-9.002;2023-01-29T00:57:38;101337.97;;;9.67;61.80
50434;BME280;36361;38.954;-9.002;2023-01-29T00:58:39;101344.63;;;9.86;61.85
50434;BME280;36361;38.954;-9.002;2023-01-29T01:00:03;101332.88;;;9.79;64.06
50434;BME280;36361;38.954;-9.002;2023-01-29T01:01:02;101342.56;;;9.67;63.52
50434;BME280;36361;38.954;-9.002;2023-01-29T01:02:03;101327.94;;;9.47;63.39
50434;BME280;36361;38.954;-9.002;2023-01-29T01:03:23;101335.25;;;9.31;64.14
50434;BME280;36361;38.954;-9.002;2023-01-29T01:04:24;101330.84;;;9.09;64.92
50434;BME280;36361;38.954;-9.002;2023-01-29T01:05:25;101334.19;;;9.11;67.92
50434;BME280;36361;38.954;-9.002;2023-01-29T01:06:29;101335.16;;;8.89;65.41
50434;BME280;36361;38.954;-9.002;2023-01-29T01:07:30;101336.47;;;8.93;65.38
50434;BME280;36361;38.954;-9.002;2023-01-29T01:08:31;101336.66;;;8.91;65.05
50434;BME280;36361;38.954;-9.002;2023-01-29T01:09:50;101342.63;;;8.87;64.84
50434;BME280;36361;38.954;-9.002;2023-01-29T01:11:09;101338.72;;;8.74;66.39
50434;BME280;36361;38.954;-9.002;2023-01-29T01:12:10;101342.06;;;8.76;66.89
50434;BME280;36361;38.954;-9.002;2023-01-29T01:13:11;101342.06;;;8.76;67.47
50434;BME280;36361;38.954;-9.002;2023-01-29T01:14:12;101331.59;;;8.73;66.66
50434;BME280;36361;38.954;-9.002;2023-01-29T01:15:16;101320.28;;;8.84;70.68
50434;BME280;36361;38.954;-9.002;2023-01-29T01:16:17;101326.34;;;8.87;67.65
50434;BME280;36361;38.954;-9.002;2023-01-29T01:17:18;101331.75;;;9.16;72.58
50434;BME280;36361;38.954;-9.002;2023-01-29T01:18:19;101324.00;;;8.98;65.21
50434;BME280;36361;38.954;-9.002;2023-01-29T01:19:21;101321.84;;;8.94;65.13
50434;BME280;36361;38.954;-9.002;2023-01-29T01:20:24;101322.25;;;8.91;65.20
50434;BME280;36361;38.954;-9.002;2023-01-29T01:21:25;101330.88;;;8.79;65.49
50434;BME280;36361;38.954;-9.002;2023-01-29T01:22:35;101320.25;;;8.99;66.04
50434;BME280;36361;38.954;-9.002;2023-01-29T01:23:38;101322.78;;;8.86;66.11
50434;BME280;36361;38.954;-9.002;2023-01-29T01:24:39;101327.03;;;8.89;66.43
50434;BME280;36361;38.954;-9.002;2023-01-29T01:25:43;101321.41;;;8.90;66.54
50434;BME280;36361;38.954;-9.002;2023-01-29T01:26:45;101326.53;;;8.85;66.14
50434;BME280;36361;38.954;-9.002;2023-01-29T01:27:56;101324.66;;;8.86;65.67
50434;BME280;36361;38.954;-9.002;2023-01-29T01:28:57;101329.53;;;8.75;66.96
50434;BME280;36361;38.954;-9.002;2023-01-29T01:29:59;101328.13;;;8.94;65.35
50434;BME280;36361;38.954;-9.002;2023-01-29T01:31:09;101337.97;;;8.80;65.44
50434;BME280;36361;38.954;-9.002;2023-01-29T01:32:11;101330.88;;;8.79;65.81
50434;BME280;36361;38.954;-9.002;2023-01-29T01:33:14;101324.00;;;8.98;65.10
50434;BME280;36361;38.954;-9.002;2023-01-29T01:34:15;101333.06;;;9.20;64.31
50434;BME280;36361;38.954;-9.002;2023-01-29T01:35:16;101332.25;;;8.90;65.72
50434;BME280;36361;38.954;-9.002;2023-01-29T01:36:18;101325.66;;;9.14;66.13
50434;BME280;36361;38.954;-9.002;2023-01-29T01:37:19;101332.31;;;9.26;64.06
50434;BME280;36361;38.954;-9.002;2023-01-29T01:38:20;101327.78;;;9.33;63.30
50434;BME280;36361;38.954;-9.002;2023-01-29T01:39:22;101327.16;;;9.53;61.58
50434;BME280;36361;38.954;-9.002;2023-01-29T01:40:24;101328.88;;;9.39;62.41
50434;BME280;36361;38.954;-9.002;2023-01-29T01:41:25;101330.72;;;9.53;62.36
50434;BME280;36361;38.954;-9.002;2023-01-29T01:42:28;101339.56;;;9.40;62.10
50434;BME280;36361;38.954;-9.002;2023-01-29T01:43:56;101334.72;;;9.21;61.98
50434;BME280;36361;38.954;-9.002;2023-01-29T01:44:59;101336.69;;;9.27;63.21
50434;BME280;36361;38.954;-9.002;2023-01-29T01:46:04;101330.44;;;9.48;61.82
50434;BME280;36361;38.954;-9.002;2023-01-29T01:47:05;101332.31;;;9.26;62.29
50434;BME280;36361;38.954;-9.002;2023-01-29T01:49:15;101326.94;;;8.97;63.91
50434;BME280;36361;38.954;-9.002;2023-01-29T01:50:27;101333.56;;;8.94;63.76
50434;BME280;36361;38.954;-9.002;2023-01-29T01:51:31;101332.81;;;9.00;65.05
50434;BME280;36361;38.954;-9.002;2023-01-29T01:52:36;101325.84;;;9.27;62.74
50434;BME280;36361;38.954;-9.002;2023-01-29T01:53:42;101330.69;;;9.32;63.78
50434;BME280;36361;38.954;-9.002;2023-01-29T01:54:44;101330.00;;;9.45;62.39
50434;BME280;36361;38.954;-9.002;2023-01-29T01:55:52;101327.09;;;9.46;63.67
50434;BME280;36361;38.954;-9.002;2023-01-29T01:56:57;101326.97;;;9.54;63.90
50434;BME280;36361;38.954;-9.002;2023-01-29T01:58:11;101327.06;;;9.10;63.09
50434;BME280;36361;38.954;-9.002;2023-01-29T01:59:16;101329.63;;;8.97;64.09
50434;BME280;36361;38.954;-9.002;2023-01-29T02:00:20;101321.78;;;8.87;64.80
50434;BME280;36361;38.954;-9.002;2023-01-29T02:01:22;101329.19;;;8.78;64.90
50434;BME280;36361;38.954;-9.002;2023-01-29T02:02:27;101329.50;;;9.05;64.02
50434;BME280;36361;38.954;-9.002;2023-01-29T02:03:57;101318.50;;;8.92;64.73
50434;BME280;36361;38.954;-9.002;2023-01-29T02:05:18;101319.88;;;9.17;63.65
50434;BME280;36361;38.954;-9.002;2023-01-29T02:06:38;101319.81;;;9.32;62.79
50434;BME280;36361;38.954;-9.002;2023-01-29T02:07:58;101327.22;;;9.23;62.96
50434;BME280;36361;38.954;-9.002;2023-01-29T02:09:24;101325.19;;;9.10;63.68
50434;BME280;36361;38.954;-9.002;2023-01-29T02:10:42;101321.31;;;8.83;64.26
50434;BME280;36361;38.954;-9.002;2023-01-29T02:11:43;101325.66;;;9.14;62.72
50434;BME280;36361;38.954;-9.002;2023-01-29T02:12:45;101326.31;;;9.16;62.75
50434;BME280;36361;38.954;-9.002;2023-01-29T02:13:46;101328.63;;;9.34;63.55
50434;BME280;36361;38.954;-9.002;2023-01-29T02:14:59;101333.13;;;9.27;62.39
50434;BME280;36361;38.954;-9.002;2023-01-29T02:16:00;101330.75;;;9.38;62.06
50434;BME280;36361;38.954;-9.002;2023-01-29T02:17:01;101330.25;;;9.50;61.07
50434;BME280;36361;38.954;-9.002;2023-01-29T02:18:02;101328.44;;;9.57;60.46
50434;BME280;36361;38.954;-9.002;2023-01-29T02:19:15;101329.78;;;9.61;61.20
50434;BME280;36361;38.954;-9.002;2023-01-29T02:20:27;101331.81;;;9.59;61.22
50434;BME280;36361;38.954;-9.002;2023-01-29T02:26:26;101321.59;;;8.89;64.99
50434;BME280;36361;38.954;-9.002;2023-01-29T02:29:06;101331.09;;;9.14;62.98
50434;BME280;36361;38.954;-9.002;2023-01-29T02:30:32;101322.03;;;9.07;63.58
50434;BME280;36361;38.954;-9.002;2023-01-29T02:31:40;101321.09;;;9.00;65.88
50434;BME280;36361;38.954;-9.002;2023-01-29T02:33:11;101317.50;;;9.14;63.64
50434;BME280;36361;38.954;-9.002;2023-01-29T02:35:31;101327.81;;;9.19;63.00
50434;BME280;36361;38.954;-9.002;2023-01-29T02:37:02;101317.16;;;9.17;63.39
50434;BME280;36361;38.954;-9.002;2023-01-29T02:38:41;101314.53;;;9.09;63.03
50434;BME280;36361;38.954;-9.002;2023-01-29T02:40:04;101314.56;;;9.30;62.21
50434;BME280;36361;38.954;-9.002;2023-01-29T02:41:23;101316.38;;;9.23;61.95
50434;BME280;36361;38.954;-9.002;2023-01-29T02:42:32;101307.97;;;9.18;62.74
50434;BME280;36361;38.954;-9.002;2023-01-29T02:43:44;101311.22;;;9.13;62.36
50434;BME280;36361;38.954;-9.002;2023-01-29T02:44:51;101312.56;;;9.18;62.74
50434;BME280;36361;38.954;-9.002;2023-01-29T02:48:32;101310.47;;;9.20;63.04
50434;BME280;36361;38.954;-9.002;2023-01-29T02:49:46;101315.56;;;9.08;63.70
50434;BME280;36361;38.954;-9.002;2023-01-29T02:50:59;101309.78;;;9.32;63.38
50434;BME280;36361;38.954;-9.002;2023-01-29T02:52:06;101306.94;;;9.40;62.95
50434;BME280;36361;38.954;-9.002;2023-01-29T02:53:15;101304.06;;;9.42;63.17
50434;BME280;36361;38.954;-9.002;2023-01-29T02:54:21;101308.16;;;9.53;66.31
50434;BME280;36361;38.954;-9.002;2023-01-29T02:56:50;101310.78;;;9.10;62.68
50434;BME280;36361;38.954;-9.002;2023-01-29T02:57:56;101312.31;;;8.98;63.98
50434;BME280;36361;38.954;-9.002;2023-01-29T02:59:07;101320.41;;;9.12;65.26
50434;BME280;36361;38.954;-9.002;2023-01-29T03:01:17;101312.38;;;9.40;62.12
50434;BME280;36361;38.954;-9.002;2023-01-29T03:02:31;101322.66;;;9.24;62.63
50434;BME280;36361;38.954;-9.002;2023-01-29T03:03:40;101316.22;;;9.10;63.22
50434;BME280;36361;38.954;-9.002;2023-01-29T03:04:52;101316.59;;;9.07;63.12
50434;BME280;36361;38.954;-9.002;2023-01-29T03:06:00;101314.84;;;8.99;63.92
50434;BME280;36361;38.954;-9.002;2023-01-29T03:07:10;101315.78;;;8.77;64.81
50434;BME280;36361;38.954;-9.002;2023-01-29T03:08:41;101318.81;;;9.18;62.66
50434;BME280;36361;38.954;-9.002;2023-01-29T03:09:46;101319.22;;;9.15;62.61
50434;BME280;36361;38.954;-9.002;2023-01-29T03:10:56;101317.06;;;8.96;63.58
50434;BME280;36361;38.954;-9.002;2023-01-29T03:12:29;101318.66;;;9.05;64.39
50434;BME280;36361;38.954;-9.002;2023-01-29T03:13:56;101315.38;;;8.95;64.91
50434;BME280;36361;38.954;-9.002;2023-01-29T03:15:19;101314.75;;;8.93;64.04
50434;BME280;36361;38.954;-9.002;2023-01-29T03:16:50;101312.59;;;8.88;63.85
50434;BME280;36361;38.954;-9.002;2023-01-29T03:18:22;101310.44;;;8.98;62.90
50434;BME280;36361;38.954;-9.002;2023-01-29T03:19:32;101316.22;;;8.95;63.31
50434;BME280;36361;38.954;-9.002;2023-01-29T03:20:44;101314.66;;;8.86;63.76
50434;BME280;36361;38.954;-9.002;2023-01-29T03:22:00;101314.59;;;8.79;64.52
50434;BME280;36361;38.954;-9.002;2023-01-29T03:23:18;101316.91;;;8.68;63.52
50434;BME280;36361;38.954;-9.002;2023-01-29T03:26:08;101314.00;;;8.99;62.14
50434;BME280;36361;38.954;-9.002;2023-01-29T03:27:42;101319.44;;;8.99;62.61
50434;BME280;36361;38.954;-9.002;2023-01-29T03:29:07;101325.25;;;8.66;64.23
50434;BME280;36361;38.954;-9.002;2023-01-29T03:30:29;101320.75;;;8.73;63.75
50434;BME280;36361;38.954;-9.002;2023-01-29T03:32:08;101323.88;;;8.33;66.07
50434;BME280;36361;38.954;-9.002;2023-01-29T03:33:13;101325.22;;;8.37;64.51
50434;BME280;36361;38.954;-9.002;2023-01-29T03:34:19;101325.56;;;8.34;64.83
50434;BME280;36361;38.954;-9.002;2023-01-29T03:35:29;101316.53;;;8.41;64.85
50434;BME280;36361;38.954;-9.002;2023-01-29T03:37:01;101317.38;;;8.42;64.08
50434;BME280;36361;38.954;-9.002;2023-01-29T03:38:02;101324.63;;;8.26;65.18
50434;BME280;36361;38.954;-9.002;2023-01-29T03:39:07;101329.91;;;8.43;64.61
50434;BME280;36361;38.954;-9.002;2023-01-29T03:40:09;101324.19;;;8.67;62.89
50434;BME280;36361;38.954;-9.002;2023-01-29T03:41:24;101330.09;;;8.56;63.88
50434;BME280;36361;38.954;-9.002;2023-01-29T03:44:56;101328.41;;;8.55;63.89
50434;BME280;36361;38.954;-9.002;2023-01-29T03:45:36;101324.28;;;8.59;63.72
50434;BME280;36361;38.954;-9.002;2023-01-29T03:47:17;101323.66;;;8.42;66.50
50434;BME280;36361;38.954;-9.002;2023-01-29T03:48:53;101321.19;;;8.33;65.73
50434;BME280;36361;38.954;-9.002;2023-01-29T03:50:20;101326.09;;;8.14;66.69
50434;BME280;36361;38.954;-9.002;2023-01-29T03:51:34;101324.03;;;8.16;68.29
50434;BME280;36361;38.954;-9.002;2023-01-29T03:52:49;101319.91;;;8.20;67.77
50434;BME280;36361;38.954;-9.002;2023-01-29T03:55:15;101331.16;;;8.17;67.43
50434;BME280;36361;38.954;-9.002;2023-01-29T03:56:55;101328.13;;;8.12;67.35
50434;BME280;36361;38.954;-9.002;2023-01-29T04:01:05;101323.28;;;8.60;64.43
50434;BME280;36361;38.954;-9.002;2023-01-29T04:02:17;101332.91;;;8.48;64.19
50434;BME280;36361;38.954;-9.002;2023-01-29T04:03:37;101327.97;;;8.28;67.53
50434;BME280;36361;38.954;-9.002;2023-01-29T04:04:43;101331.72;;;8.27;67.77
50434;BME280;36361;38.954;-9.002;2023-01-29T04:05:57;101330.19;;;8.10;68.04
50434;BME280;36361;38.954;-9.002;2023-01-29T04:07:16;101336.25;;;7.52;69.22
50434;BME280;36361;38.954;-9.002;2023-01-29T04:08:28;101333.72;;;7.50;69.58
50434;BME280;36361;38.954;-9.002;2023-01-29T04:10:40;101330.94;;;7.58;69.30
50434;BME280;36361;38.954;-9.002;2023-01-29T04:11:47;101323.97;;;7.87;67.79
50434;BME280;36361;38.954;-9.002;2023-01-29T04:13:08;101329.97;;;7.97;66.66
50434;BME280;36361;38.954;-9.002;2023-01-29T04:14:11;101335.66;;;7.87;66.56
50434;BME280;36361;38.954;-9.002;2023-01-29T04:15:16;101327.44;;;7.73;66.30
50434;BME280;36361;38.954;-9.002;2023-01-29T04:16:25;101325.91;;;7.78;65.92
50434;BME280;36361;38.954;-9.002;2023-01-29T04:17:49;101335.28;;;7.90;66.16
50434;BME280;36361;38.954;-9.002;2023-01-29T04:19:01;101334.63;;;7.88;65.20
50434;BME280;36361;38.954;-9.002;2023-01-29T04:20:10;101332.63;;;7.59;66.68
50434;BME280;36361;38.954;-9.002;2023-01-29T04:21:14;101335.25;;;7.67;65.25
50434;BME280;36361;38.954;-9.002;2023-01-29T04:22:35;101331.63;;;7.60;66.31
50434;BME280;36361;38.954;-9.002;2023-01-29T04:23:36;101336.19;;;7.83;64.83
50434;BME280;36361;38.954;-9.002;2023-01-29T04:24:37;101332.63;;;7.82;65.05
50434;BME280;36361;38.954;-9.002;2023-01-29T04:25:45;101335.41;;;7.97;64.36
50434;BME280;36361;38.954;-9.002;2023-01-29T04:28:27;101333.25;;;7.69;65.56
50434;BME280;36361;38.954;-9.002;2023-01-29T04:30:06;101333.25;;;7.69;65.43
50434;BME280;36361;38.954;-9.002;2023-01-29T04:31:14;101335.25;;;7.67;65.00
50434;BME280;36361;38.954;-9.002;2023-01-29T04:34:31;101327.91;;;7.76;64.38
50434;BME280;36361;38.954;-9.002;2023-01-29T04:35:45;101328.41;;;7.80;63.57
50434;BME280;36361;38.954;-9.002;2023-01-29T04:46:11;101326.16;;;7.68;62.40
50434;BME280;36361;38.954;-9.002;2023-01-29T04:48:29;101326.97;;;7.92;60.97
50434;BME280;36361;38.954;-9.002;2023-01-29T04:49:38;101318.09;;;7.98;65.18
50434;BME280;36361;38.954;-9.002;2023-01-29T04:52:21;101312.63;;;8.06;60.35
50434;BME280;36361;38.954;-9.002;2023-01-29T04:57:14;101320.03;;;7.89;59.77
50434;BME280;36361;38.954;-9.002;2023-01-29T05:00:16;101324.97;;;7.86;59.92
50434;BME280;36361;38.954;-9.002;2023-01-29T05:00:52;101319.66;;;7.92;58.94
50434;BME280;36361;38.954;-9.002;2023-01-29T05:01:54;101321.41;;;8.08;58.54
50434;BME280;36361;38.954;-9.002;2023-01-29T05:02:56;101325.78;;;8.09;57.45
50434;BME280;36361;38.954;-9.002;2023-01-29T05:04:02;101324.75;;;8.48;61.13
50434;BME280;36361;38.954;-9.002;2023-01-29T05:05:05;101319.00;;;8.28;56.69
50434;BME280;36361;38.954;-9.002;2023-01-29T05:06:08;101318.81;;;8.30;55.64
50434;BME280;36361;38.954;-9.002;2023-01-29T05:07:13;101326.81;;;8.08;55.77
50434;BME280;36361;38.954;-9.002;2023-01-29T05:08:17;101318.63;;;8.16;57.87
50434;BME280;36361;38.954;-9.002;2023-01-29T05:09:19;101324.25;;;8.30;57.15
50434;BME280;36361;38.954;-9.002;2023-01-29T05:10:21;101323.66;;;8.19;56.51
50434;BME280;36361;38.954;-9.002;2023-01-29T05:11:24;101326.81;;;8.08;56.65
50434;BME280;36361;38.954;-9.002;2023-01-29T05:12:27;101323.53;;;8.13;56.07
50434;BME280;36361;38.954;-9.002;2023-01-29T05:13:35;101334.22;;;8.14;56.48
50434;BME280;36361;38.954;-9.002;2023-01-29T05:14:38;101326.88;;;8.00;56.72
50434;BME280;36361;38.954;-9.002;2023-01-29T05:15:55;101324.50;;;8.20;55.68
50434;BME280;36361;38.954;-9.002;2023-01-29T05:16:59;101327.66;;;8.09;55.57
50434;BME280;36361;38.954;-9.002;2023-01-29T05:18:03;101328.19;;;8.04;56.49
50434;BME280;36361;38.954;-9.002;2023-01-29T05:19:10;101327.78;;;8.15;56.01
50434;BME280;36361;38.954;-9.002;2023-01-29T05:20:12;101329.28;;;8.18;56.08
50434;BME280;36361;38.954;-9.002;2023-01-29T05:21:13;101334.97;;;7.85;56.73
50434;BME280;36361;38.954;-9.002;2023-01-29T05:22:16;101330.81;;;7.75;57.39
50434;BME280;36361;38.954;-9.002;2023-01-29T05:23:19;101332.88;;;7.73;56.93
50434;BME280;36361;38.954;-9.002;2023-01-29T05:24:23;101333.97;;;7.86;57.05
50434;BME280;36361;38.954;-9.002;2023-01-29T05:25:30;101337.09;;;7.98;57.00
50434;BME280;36361;38.954;-9.002;2023-01-29T05:26:32;101335.34;;;8.05;55.98
50434;BME280;36361;38.954;-9.002;2023-01-29T05:27:51;101344.13;;;7.84;56.70
50434;BME280;36361;38.954;-9.002;2023-01-29T05:29:13;101332.09;;;7.64;57.32
50434;BME280;36361;38.954;-9.002;2023-01-29T05:30:14;101327.28;;;7.51;58.33
50434;BME280;36361;38.954;-9.002;2023-01-29T05:31:15;101334.78;;;7.64;57.92
50434;BME280;36361;38.954;-9.002;2023-01-29T05:32:16;101325.88;;;7.55;57.72
50434;BME280;36361;38.954;-9.002;2023-01-29T05:33:19;101329.19;;;7.65;57.08
50434;BME280;36361;38.954;-9.002;2023-01-29T05:34:20;101327.94;;;7.53;57.75
50434;BME280;36361;38.954;-9.002;2023-01-29T05:35:21;101319.44;;;7.33;59.21
50434;BME280;36361;38.954;-9.002;2023-01-29T05:36:22;101329.38;;;7.41;60.20
50434;BME280;36361;38.954;-9.002;2023-01-29T05:37:24;101323.94;;;6.79;63.54
50434;BME280;36361;38.954;-9.002;2023-01-29T05:38:25;101335.47;;;6.56;65.94
50434;BME280;36361;38.954;-9.002;2023-01-29T05:39:26;101331.91;;;6.64;67.73
50434;BME280;36361;38.954;-9.002;2023-01-29T05:40:27;101332.94;;;6.63;67.42
50434;BME280;36361;38.954;-9.002;2023-01-29T05:41:28;101330.06;;;6.56;67.85
50434;BME280;36361;38.954;-9.002;2023-01-29T05:42:29;101329.19;;;6.72;67.57
50434;BME280;36361;38.954;-9.002;2023-01-29T05:43:30;101334.78;;;6.71;67.76
50434;BME280;36361;38.954;-9.002;2023-01-29T05:44:33;101329.09;;;6.49;69.25
50434;BME280;36361;38.954;-9.002;2023-01-29T05:45:34;101328.47;;;6.31;70.24
50434;BME280;36361;38.954;-9.002;2023-01-29T05:46:36;101327.09;;;6.35;71.65
50434;BME280;36361;38.954;-9.002;2023-01-29T05:47:37;101327.38;;;6.48;71.47
50434;BME280;36361;38.954;-9.002;2023-01-29T05:48:43;101321.81;;;6.50;67.44
50434;BME280;36361;38.954;-9.002;2023-01-29T05:49:47;101321.25;;;6.71;69.25
50434;BME280;36361;38.954;-9.002;2023-01-29T05:50:51;101321.19;;;6.87;65.14
50434;BME280;36361;38.954;-9.002;2023-01-29T05:51:51;101324.66;;;7.04;66.26
50434;BME280;36361;38.954;-9.002;2023-01-29T05:53:00;101333.47;;;6.59;69.50
50434;BME280;36361;38.954;-9.002;2023-01-29T05:54:01;101330.13;;;6.40;68.37
50434;BME280;36361;38.954;-9.002;2023-01-29T05:55:02;101324.75;;;6.24;69.45
50434;BME280;36361;38.954;-9.002;2023-01-29T05:56:04;101324.94;;;6.14;69.06
50434;BME280;36361;38.954;-9.002;2023-01-29T05:57:08;101328.47;;;6.23;68.13
50434;BME280;36361;38.954;-9.002;2023-01-29T05:58:09;101329.75;;;6.51;67.25
50434;BME280;36361;38.954;-9.002;2023-01-29T05:59:10;101331.75;;;6.57;65.70
50434;BME280;36361;38.954;-9.002;2023-01-29T06:00:12;101325.81;;;6.70;64.39
50434;BME280;36361;38.954;-9.002;2023-01-29T06:01:19;101332.59;;;6.58;64.79
50434;BME280;36361;38.954;-9.002;2023-01-29T06:02:21;101330.28;;;6.94;62.76
50434;BME280;36361;38.954;-9.002;2023-01-29T06:03:22;101327.84;;;7.07;61.91
50434;BME280;36361;38.954;-9.002;2023-01-29T06:04:23;101319.78;;;6.99;61.23
50434;BME280;36361;38.954;-9.002;2023-01-29T06:05:24;101324.97;;;7.09;60.59
50434;BME280;36361;38.954;-9.002;2023-01-29T06:06:24;101321.69;;;7.22;59.98
50434;BME280;36361;38.954;-9.002;2023-01-29T06:07:25;101326.44;;;7.20;59.83
50434;BME280;36361;38.954;-9.002;2023-01-29T06:08:26;101321.53;;;7.23;59.32
50434;BME280;36361;38.954;-9.002;2023-01-29T06:09:27;101323.88;;;6.95;59.31
50434;BME280;36361;38.954;-9.002;2023-01-29T06:10:28;101331.59;;;7.06;59.61
50434;BME280;36361;38.954;-9.002;2023-01-29T06:11:29;101324.38;;;7.22;59.22
50434;BME280;36361;38.954;-9.002;2023-01-29T06:12:30;101330.22;;;7.02;59.15
50434;BME280;36361;38.954;-9.002;2023-01-29T06:13:31;101327.63;;;6.86;59.24
50434;BME280;36361;38.954;-9.002;2023-01-29T06:14:32;101327.03;;;6.60;60.55
50434;BME280;36361;38.954;-9.002;2023-01-29T06:15:37;101333.09;;;6.62;60.43
50434;BME280;36361;38.954;-9.002;2023-01-29T06:16:38;101337.50;;;6.54;60.37
50434;BME280;36361;38.954;-9.002;2023-01-29T06:17:40;101338.38;;;6.94;58.84
50434;BME280;36361;38.954;-9.002;2023-01-29T06:18:42;101327.22;;;6.97;58.05
50434;BME280;36361;38.954;-9.002;2023-01-29T06:19:44;101333.69;;;6.88;59.50
50434;BME280;36361;38.954;-9.002;2023-01-29T06:20:46;101331.22;;;7.09;58.54
50434;BME280;36361;38.954;-9.002;2023-01-29T06:21:47;101323.41;;;6.75;58.79
50434;BME280;36361;38.954;-9.002;2023-01-29T06:22:48;101321.69;;;6.82;59.66
50434;BME280;36361;38.954;-9.002;2023-01-29T06:23:51;101321.03;;;6.80;58.96
50434;BME280;36361;38.954;-9.002;2023-01-29T06:24:52;101326.19;;;7.06;58.22
50434;BME280;36361;38.954;-9.002;2023-01-29T06:25:53;101325.41;;;7.21;57.77
50434;BME280;36361;38.954;-9.002;2023-01-29T06:26:53;101326.59;;;6.87;59.01
50434;BME280;36361;38.954;-9.002;2023-01-29T06:27:54;101323.56;;;6.82;58.61
50434;BME280;36361;38.954;-9.002;2023-01-29T06:28:55;101325.88;;;6.93;58.40
50434;BME280;36361;38.954;-9.002;2023-01-29T06:29:56;101328.91;;;6.98;58.33
50434;BME280;36361;38.954;-9.002;2023-01-29T06:31:00;101326.25;;;6.90;58.11
50434;BME280;36361;38.954;-9.002;2023-01-29T06:32:01;101326.66;;;7.10;57.21
50434;BME280;36361;38.954;-9.002;2023-01-29T06:33:02;101325.81;;;7.09;56.38
50434;BME280;36361;38.954;-9.002;2023-01-29T06:34:03;101326.44;;;7.20;56.25
50434;BME280;36361;38.954;-9.002;2023-01-29T06:35:04;101326.22;;;7.29;56.50